Schneifelwetter: Wetterstation Hallschlag, 537 m . NN
Wetterdaten: Samstag, 19.11.2011
Datum Zeit Temp. A. Feuchte A. Luftdruck Regen Wind Richtung Richtung Sonnenschein Helligkeit T Regen Taupunkt Windchill
19.11.2011 00:01 4,9 C 98 % 1019 hPa 0,0 l/m 0,0 km/h (0 Bft) NO 40 0 min 0 lux 0 min 4,6 C 4,9 C
19.11.2011 00:16 4,9 C 98 % 1019 hPa 0,0 l/m 0,0 km/h (0 Bft) NO 40 0 min 0 lux 0 min 4,6 C 4,9 C
19.11.2011 00:31 5,1 C 98 % 1019 hPa 0,0 l/m 6,6 km/h (2 Bft) NO 40 0 min 0 lux 0 min 4,8 C 4,9 C
19.11.2011 00:46 5,1 C 98 % 1019 hPa 0,0 l/m 1,3 km/h (1 Bft) NO 40 0 min 0 lux 0 min 4,8 C 5,1 C
19.11.2011 01:01 5,1 C 98 % 1018 hPa 0,0 l/m 0,0 km/h (0 Bft) NO 35 0 min 0 lux 0 min 4,8 C 5,1 C
19.11.2011 01:16 5,1 C 98 % 1018 hPa 0,0 l/m 7,9 km/h (2 Bft) N-NO 30 0 min 0 lux 0 min 4,8 C 3,8 C
19.11.2011 01:31 4,9 C 98 % 1018 hPa 0,0 l/m 9,4 km/h (2 Bft) NO 35 0 min 0 lux 0 min 4,6 C 2,4 C
19.11.2011 01:45 4,9 C 98 % 1018 hPa 0,0 l/m 6,8 km/h (2 Bft) NO 35 0 min 0 lux 0 min 4,6 C 4,6 C
19.11.2011 02:00 4,8 C 98 % 1018 hPa 0,0 l/m 6,4 km/h (2 Bft) NO 50 0 min 0 lux 0 min 4,5 C 4,8 C
19.11.2011 02:15 4,6 C 98 % 1018 hPa 0,0 l/m 7,1 km/h (2 Bft) NO 40 0 min 0 lux 0 min 4,3 C 4,0 C
19.11.2011 02:30 4,3 C 98 % 1018 hPa 0,0 l/m 5,4 km/h (1 Bft) NO 45 0 min 0 lux 0 min 4,0 C 4,3 C
19.11.2011 02:45 4,0 C 98 % 1018 hPa 0,0 l/m 0,7 km/h (0 Bft) NO 40 0 min 0 lux 0 min 3,7 C 4,0 C
19.11.2011 03:00 3,9 C 98 % 1018 hPa 0,0 l/m 0,5 km/h (0 Bft) NO 40 0 min 0 lux 0 min 3,6 C 3,9 C
19.11.2011 03:15 3,7 C 98 % 1018 hPa 0,0 l/m 3,0 km/h (1 Bft) NO 40 0 min 0 lux 0 min 3,4 C 3,7 C
19.11.2011 03:30 3,5 C 99 % 1018 hPa 0,0 l/m 6,7 km/h (2 Bft) NO 40 0 min 0 lux 0 min 3,4 C 3,2 C
19.11.2011 03:45 3,3 C 99 % 1018 hPa 0,0 l/m 6,8 km/h (2 Bft) N 5 0 min 0 lux 0 min 3,2 C 2,9 C
19.11.2011 04:00 3,2 C 99 % 1018 hPa 0,0 l/m 4,3 km/h (1 Bft) N 5 0 min 0 lux 0 min 3,1 C 3,2 C
19.11.2011 04:15 2,8 C 99 % 1018 hPa 0,0 l/m 0,1 km/h (0 Bft) N 5 0 min 0 lux 0 min 2,7 C 2,8 C
19.11.2011 04:30 2,6 C 98 % 1018 hPa 0,0 l/m 0,0 km/h (0 Bft) N 5 0 min 0 lux 0 min 2,3 C 2,6 C
19.11.2011 04:45 2,3 C 98 % 1018 hPa 0,0 l/m 0,0 km/h (0 Bft) N 5 0 min 0 lux 0 min 2,0 C 2,3 C
19.11.2011 05:00 1,9 C 98 % 1018 hPa 0,0 l/m 0,0 km/h (0 Bft) N 5 0 min 0 lux 0 min 1,6 C 1,9 C
19.11.2011 05:15 1,7 C 98 % 1018 hPa 0,0 l/m 1,9 km/h (1 Bft) N 5 0 min 0 lux 0 min 1,4 C 1,7 C
19.11.2011 05:30 1,5 C 99 % 1018 hPa 0,0 l/m 0,4 km/h (0 Bft) N 5 0 min 0 lux 0 min 1,4 C 1,5 C
19.11.2011 05:45 1,2 C 99 % 1018 hPa 0,0 l/m 0,0 km/h (0 Bft) N 5 0 min 0 lux 0 min 1,1 C 1,2 C
19.11.2011 06:00 0,9 C 98 % 1018 hPa 0,0 l/m 0,0 km/h (0 Bft) N 5 0 min 0 lux 0 min 0,6 C 0,9 C
19.11.2011 06:15 0,6 C 99 % 1018 hPa 0,0 l/m 0,0 km/h (0 Bft) N 5 0 min 0 lux 0 min 0,5 C 0,6 C
19.11.2011 06:30 0,3 C 99 % 1018 hPa 0,0 l/m 0,0 km/h (0 Bft) N 5 0 min 0 lux 0 min 0,2 C 0,3 C
19.11.2011 06:45 0,2 C 99 % 1018 hPa 0,0 l/m 0,0 km/h (0 Bft) N 5 0 min 0 lux 0 min 0,1 C 0,2 C
19.11.2011 07:00 -0,2 C 98 % 1018 hPa 0,0 l/m 0,0 km/h (0 Bft) N 5 0 min 0 lux 0 min -0,5 C -0,2 C
19.11.2011 07:15 -0,6 C 98 % 1018 hPa 0,0 l/m 0,0 km/h (0 Bft) N 5 0 min 0 lux 0 min -0,9 C -0,6 C
19.11.2011 07:30 -0,8 C 98 % 1018 hPa 0,0 l/m 0,0 km/h (0 Bft) N 5 0 min 65 lux 0 min -1,1 C -0,8 C
19.11.2011 07:45 -0,9 C 98 % 1018 hPa 0,0 l/m 0,0 km/h (0 Bft) N 5 0 min 151 lux 0 min -1,2 C -0,9 C
19.11.2011 08:00 -0,8 C 98 % 1018 hPa 0,0 l/m 0,0 km/h (0 Bft) N 5 0 min 728 lux 0 min -1,1 C -0,8 C
19.11.2011 08:15 -0,8 C 99 % 1018 hPa 0,0 l/m 0,0 km/h (0 Bft) N 5 0 min 1,75 klux 0 min -0,9 C -0,8 C
19.11.2011 08:30 -0,7 C 99 % 1018 hPa 0,0 l/m 0,0 km/h (0 Bft) N 5 0 min 3,36 klux 0 min -0,8 C -0,7 C
19.11.2011 08:45 -0,6 C 99 % 1018 hPa 0,0 l/m 0,0 km/h (0 Bft) N 5 0 min 4,25 klux 0 min -0,7 C -0,6 C
19.11.2011 09:00 -0,8 C 98 % 1018 hPa 0,0 l/m 0,0 km/h (0 Bft) N 5 0 min 7,60 klux 0 min -1,1 C -0,8 C
19.11.2011 09:15 -0,8 C 99 % 1018 hPa 0,0 l/m 0,0 km/h (0 Bft) N 5 0 min 12,8 klux 0 min -0,9 C -0,8 C
19.11.2011 09:30 -0,5 C 99 % 1018 hPa 0,0 l/m 0,0 km/h (0 Bft) N 5 0 min 15,3 klux 0 min -0,6 C -0,5 C
19.11.2011 09:45 -0,2 C 99 % 1018 hPa 0,0 l/m 0,0 km/h (0 Bft) N 5 0 min 23,5 klux 0 min -0,3 C -0,2 C
19.11.2011 10:01 0,5 C 99 % 1018 hPa 0,0 l/m 0,0 km/h (0 Bft) N 5 0 min 23,6 klux 0 min 0,4 C 0,5 C
19.11.2011 10:15 1,1 C 99 % 1018 hPa 0,0 l/m 0,0 km/h (0 Bft) N 5 0 min 32,7 klux 0 min 1,0 C 1,1 C
19.11.2011 10:30 1,7 C 99 % 1018 hPa 0,0 l/m 0,0 km/h (0 Bft) N 5 0 min 30,7 klux 0 min 1,6 C 1,7 C
19.11.2011 10:45 2,8 C 99 % 1018 hPa 0,0 l/m 11,0 km/h (2 Bft) S-SO45 150 0 min 34,4 klux 0 min 2,7 C -1,1 C
19.11.2011 11:00 4,3 C 99 % 1018 hPa 0,0 l/m 18,4 km/h (3 Bft) S-SO22.5 165 0 min 36,8 klux 0 min 4,2 C -3,4 C
19.11.2011 11:15 5,5 C 99 % 1018 hPa 0,0 l/m 17,3 km/h (3 Bft) S22.5 170 15 min 39,6 klux 0 min 5,4 C -1,4 C
19.11.2011 11:31 6,2 C 99 % 1018 hPa 0,0 l/m 18,5 km/h (3 Bft) S-SO22.5 160 0 min 39,0 klux 0 min 6,1 C -1,0 C
19.11.2011 11:45 6,8 C 97 % 1018 hPa 0,0 l/m 15,1 km/h (3 Bft) S-SO45 160 0 min 36,0 klux 0 min 6,4 C 1,2 C
19.11.2011 12:00 7,1 C 95 % 1018 hPa 0,0 l/m 14,1 km/h (3 Bft) S-SO22.5 165 0 min 36,2 klux 0 min 6,4 C 2,1 C
19.11.2011 12:15 7,3 C 92 % 1018 hPa 0,0 l/m 16,6 km/h (3 Bft) S45 170 0 min 35,4 klux 0 min 6,1 C 1,1 C
19.11.2011 12:30 7,6 C 92 % 1018 hPa 0,0 l/m 14,8 km/h (3 Bft) S-SO22.5 165 0 min 39,3 klux 0 min 6,4 C 2,3 C
19.11.2011 12:45 8,0 C 90 % 1018 hPa 0,0 l/m 13,6 km/h (3 Bft) S-SO22.5 160 15 min 40,3 klux 0 min 6,5 C 3,4 C
19.11.2011 13:01 8,4 C 88 % 1018 hPa 0,0 l/m 11,0 km/h (2 Bft) S45 170 16 min 41,0 klux 0 min 6,5 C 5,2 C
19.11.2011 13:15 8,5 C 86 % 1017 hPa 0,0 l/m 14,4 km/h (3 Bft) S22.5 170 14 min 39,9 klux 0 min 6,3 C 3,6 C
19.11.2011 13:30 8,6 C 85 % 1017 hPa 0,0 l/m 14,6 km/h (3 Bft) S22.5 170 0 min 37,8 klux 0 min 6,2 C 3,6 C
19.11.2011 13:45 8,4 C 83 % 1017 hPa 0,0 l/m 14,8 km/h (3 Bft) S-SO22.5 160 0 min 32,8 klux 0 min 5,7 C 3,3 C
19.11.2011 14:00 8,2 C 82 % 1017 hPa 0,0 l/m 16,6 km/h (3 Bft) S45 170 0 min 24,2 klux 0 min 5,3 C 2,3 C
19.11.2011 14:15 8,2 C 82 % 1017 hPa 0,0 l/m 13,1 km/h (3 Bft) S45 170 0 min 30,7 klux 0 min 5,3 C 3,9 C
19.11.2011 14:31 8,1 C 81 % 1017 hPa 0,0 l/m 19,0 km/h (3 Bft) S45 180 0 min 26,7 klux 0 min 5,0 C 1,2 C
19.11.2011 14:45 8,1 C 81 % 1017 hPa 0,0 l/m 14,4 km/h (3 Bft) S22.5 170 0 min 24,8 klux 0 min 5,0 C 3,1 C
19.11.2011 15:00 8,2 C 81 % 1017 hPa 0,0 l/m 8,3 km/h (2 Bft) S45 170 0 min 27,3 klux 0 min 5,1 C 6,7 C
19.11.2011 15:15 8,1 C 80 % 1017 hPa 0,0 l/m 8,5 km/h (2 Bft) S 170 0 min 19,0 klux 0 min 4,9 C 6,5 C
19.11.2011 15:30 7,9 C 81 % 1017 hPa 0,0 l/m 11,3 km/h (2 Bft) S45 190 0 min 18,3 klux 0 min 4,8 C 4,5 C
19.11.2011 15:45 7,6 C 81 % 1017 hPa 0,0 l/m 8,9 km/h (2 Bft) S-SW45 195 0 min 14,0 klux 0 min 4,6 C 5,7 C
19.11.2011 16:01 7,0 C 82 % 1017 hPa 0,0 l/m 3,7 km/h (1 Bft) S-SW 195 0 min 6,82 klux 0 min 4,1 C 7,0 C
19.11.2011 16:15 6,4 C 83 % 1017 hPa 0,0 l/m 0,0 km/h (0 Bft) S-SW 195 0 min 5,84 klux 0 min 3,7 C 6,4 C
19.11.2011 16:30 5,7 C 83 % 1017 hPa 0,0 l/m 0,0 km/h (0 Bft) S-SW 195 0 min 2,88 klux 0 min 3,0 C 5,7 C
19.11.2011 16:45 4,9 C 84 % 1018 hPa 0,0 l/m 0,0 km/h (0 Bft) S-SW 195 0 min 1,42 klux 0 min 2,4 C 4,9 C
19.11.2011 17:00 4,2 C 85 % 1017 hPa 0,0 l/m 0,0 km/h (0 Bft) S-SW 195 0 min 451 lux 0 min 1,9 C 4,2 C
19.11.2011 17:15 3,5 C 87 % 1017 hPa 0,0 l/m 0,0 km/h (0 Bft) S-SW 195 0 min 104 lux 0 min 1,5 C 3,5 C
19.11.2011 17:31 2,8 C 87 % 1017 hPa 0,0 l/m 0,0 km/h (0 Bft) S-SW 195 0 min 9 lux 0 min 0,9 C 2,8 C
19.11.2011 17:45 2,6 C 89 % 1017 hPa 0,0 l/m 0,0 km/h (0 Bft) S-SW 195 0 min 0 lux 0 min 1,0 C 2,6 C
19.11.2011 18:00 2,1 C 89 % 1017 hPa 0,0 l/m 0,0 km/h (0 Bft) S-SW 195 0 min 0 lux 0 min 0,5 C 2,1 C
19.11.2011 18:15 1,6 C 89 % 1018 hPa 0,0 l/m 0,0 km/h (0 Bft) S-SW 195 0 min 0 lux 0 min -0,0 C 1,6 C
19.11.2011 18:30 1,2 C 90 % 1018 hPa 0,0 l/m 0,0 km/h (0 Bft) S-SW 195 0 min 0 lux 0 min -0,3 C 1,2 C
19.11.2011 18:45 0,6 C 91 % 1018 hPa 0,0 l/m 0,0 km/h (0 Bft) S-SW 195 0 min 0 lux 0 min -0,7 C 0,6 C
19.11.2011 19:01 0,2 C 91 % 1018 hPa 0,0 l/m 0,0 km/h (0 Bft) S-SW 195 0 min 0 lux 0 min -1,1 C 0,2 C
19.11.2011 19:15 0,2 C 92 % 1018 hPa 0,0 l/m 0,0 km/h (0 Bft) S-SW 195 0 min 0 lux 0 min -0,9 C 0,2 C
19.11.2011 19:30 -0,2 C 93 % 1018 hPa 0,0 l/m 0,0 km/h (0 Bft) S-SW 195 0 min 0 lux 0 min -1,2 C -0,2 C
19.11.2011 19:45 -0,2 C 94 % 1018 hPa 0,0 l/m 0,0 km/h (0 Bft) S-SW 195 0 min 0 lux 0 min -1,0 C -0,2 C
19.11.2011 20:00 -0,6 C 94 % 1018 hPa 0,0 l/m 0,0 km/h (0 Bft) S-SW 195 0 min 0 lux 0 min -1,4 C -0,6 C
19.11.2011 20:15 -0,9 C 93 % 1018 hPa 0,0 l/m 0,0 km/h (0 Bft) S-SW 195 0 min 0 lux 0 min -1,9 C -0,9 C
19.11.2011 20:31 -1,1 C 93 % 1018 hPa 0,0 l/m 0,0 km/h (0 Bft) S-SW 195 0 min 0 lux 0 min -2,1 C -1,1 C
19.11.2011 20:45 -1,4 C 94 % 1018 hPa 0,0 l/m 0,0 km/h (0 Bft) S-SW 195 0 min 0 lux 0 min -2,2 C -1,4 C
19.11.2011 21:00 -1,2 C 95 % 1018 hPa 0,0 l/m 0,0 km/h (0 Bft) S-SW 195 0 min 0 lux 0 min -1,9 C -1,2 C
19.11.2011 21:15 -0,7 C 95 % 1018 hPa 0,0 l/m 0,0 km/h (0 Bft) S-SW 195 0 min 0 lux 0 min -1,4 C -0,7 C
19.11.2011 21:30 -0,4 C 95 % 1018 hPa 0,0 l/m 0,0 km/h (0 Bft) S-SW 195 0 min 0 lux 0 min -1,1 C -0,4 C
19.11.2011 21:45 0,0 C 95 % 1018 hPa 0,0 l/m 0,0 km/h (0 Bft) S-SW 195 0 min 0 lux 0 min -0,7 C 0,0 C
19.11.2011 22:01 0,3 C 95 % 1018 hPa 0,0 l/m 0,0 km/h (0 Bft) S-SW 195 0 min 0 lux 0 min -0,4 C 0,3 C
19.11.2011 22:15 0,3 C 95 % 1018 hPa 0,0 l/m 0,0 km/h (0 Bft) S-SW 195 0 min 0 lux 0 min -0,4 C 0,3 C
19.11.2011 22:30 0,1 C 95 % 1018 hPa 0,0 l/m 0,0 km/h (0 Bft) S-SW 195 0 min 0 lux 0 min -0,6 C 0,1 C
19.11.2011 22:45 -0,3 C 95 % 1018 hPa 0,0 l/m 0,0 km/h (0 Bft) S-SW 195 0 min 0 lux 0 min -1,0 C -0,3 C
19.11.2011 23:00 -0,6 C 95 % 1018 hPa 0,0 l/m 0,0 km/h (0 Bft) S-SW 195 0 min 0 lux 0 min -1,3 C -0,6 C
19.11.2011 23:15 -0,5 C 95 % 1018 hPa 0,0 l/m 0,0 km/h (0 Bft) S-SW 195 0 min 0 lux 0 min -1,2 C -0,5 C
19.11.2011 23:31 -0,3 C 96 % 1018 hPa 0,0 l/m 0,0 km/h (0 Bft) S-SW 195 0 min 0 lux 0 min -0,9 C -0,3 C
19.11.2011 23:45 -0,3 C 96 % 1018 hPa 0,0 l/m 0,0 km/h (0 Bft) S-SW 195 0 min 0 lux 0 min -0,9 C -0,3 C
_ Min-Zeit 20:45 15:15 13:15 - 00:01 - - - - - 20:45 11:00
Minimum _ -1,4 C 80 % 1017 hPa - 0,0 km/h (0 Bft) - - - - - -2,2 C -3,4 C
_ Max-Zeit 13:30 03:30 00:01 00:01 14:31 - - 13:01 13:01 00:01 13:01 16:01
Maximum _ 8,6 C 99 % 1019 hPa 0,0 l/m 19,0 km/h
S (3 Bft)
- - 16 min 41,0 klux 0 min 6,5 C 7,0 C
Durchschnitt _ 2,9 C 94 % 1018 hPa #0,0 l/m 3,9 km/h (1 Bft) S - #1:00 h 8,92 klux #0 min. 1,9 C 1,7 C